sensor_id;sensor_type;location;lat;lon;timestamp;pressure;altitude;pressure_sealevel;temperature;humidity
3260;BME280;22469;48.150;14.004;2023-03-01T00:01:39;98809.38;;;4.57;53.02
3260;BME280;22469;48.150;14.004;2023-03-01T00:04:06;98805.97;;;4.52;53.07
3260;BME280;22469;48.150;14.004;2023-03-01T00:06:33;98803.41;;;4.47;52.73
3260;BME280;22469;48.150;14.004;2023-03-01T00:09:00;98811.00;;;4.47;52.96
3260;BME280;22469;48.150;14.004;2023-03-01T00:11:29;98811.88;;;4.45;52.76
3260;BME280;22469;48.150;14.004;2023-03-01T00:14:01;98811.84;;;4.42;53.03
3260;BME280;22469;48.150;14.004;2023-03-01T00:16:34;98809.28;;;4.39;53.15
3260;BME280;22469;48.150;14.004;2023-03-01T00:19:07;98802.50;;;4.36;53.46
3260;BME280;22469;48.150;14.004;2023-03-01T00:21:39;98811.81;;;4.36;53.32
3260;BME280;22469;48.150;14.004;2023-03-01T00:24:06;98808.41;;;4.34;53.53
3260;BME280;22469;48.150;14.004;2023-03-01T00:26:34;98809.22;;;4.25;54.10
3260;BME280;22469;48.150;14.004;2023-03-01T00:29:02;98804.09;;;4.23;54.60
3260;BME280;22469;48.150;14.004;2023-03-01T00:31:31;98808.34;;;4.21;54.92
3260;BME280;22469;48.150;14.004;2023-03-01T00:34:02;98805.78;;;4.20;54.79
3260;BME280;22469;48.150;14.004;2023-03-01T00:36:35;98814.25;;;4.19;54.49
3260;BME280;22469;48.150;14.004;2023-03-01T00:39:05;98812.56;;;4.18;54.90
3260;BME280;22469;48.150;14.004;2023-03-01T00:41:34;98808.31;;;4.14;54.71
3260;BME280;22469;48.150;14.004;2023-03-01T00:44:02;98811.69;;;4.16;54.66
3260;BME280;22469;48.150;14.004;2023-03-01T00:46:29;98809.13;;;4.13;55.05
3260;BME280;22469;48.150;14.004;2023-03-01T00:48:57;98803.19;;;4.12;54.68
3260;BME280;22469;48.150;14.004;2023-03-01T00:51:26;98801.47;;;4.08;54.54
3260;BME280;22469;48.150;14.004;2023-03-01T00:53:56;98798.88;;;3.97;54.78
3260;BME280;22469;48.150;14.004;2023-03-01T00:56:26;98795.47;;;4.00;54.59
3260;BME280;22469;48.150;14.004;2023-03-01T00:58:53;98792.09;;;3.99;54.48
3260;BME280;22469;48.150;14.004;2023-03-01T01:01:26;98786.22;;;4.00;54.72
3260;BME280;22469;48.150;14.004;2023-03-01T01:04:04;98781.94;;;3.96;54.59
3260;BME280;22469;48.150;14.004;2023-03-01T01:06:36;98782.78;;;3.98;54.77
3260;BME280;22469;48.150;14.004;2023-03-01T01:09:09;98766.72;;;3.99;54.83
3260;BME280;22469;48.150;14.004;2023-03-01T01:11:49;98776.03;;;3.99;54.48
3260;BME280;22469;48.150;14.004;2023-03-01T01:14:18;98766.75;;;4.01;54.22
3260;BME280;22469;48.150;14.004;2023-03-01T01:16:46;98757.38;;;3.92;54.63
3260;BME280;22469;48.150;14.004;2023-03-01T01:19:14;98774.25;;;3.84;54.90
3260;BME280;22469;48.150;14.004;2023-03-01T01:21:42;98772.63;;;3.94;54.92
3260;BME280;22469;48.150;14.004;2023-03-01T01:24:10;98766.72;;;3.98;54.85
3260;BME280;22469;48.150;14.004;2023-03-01T01:26:37;98750.66;;;3.99;54.88
3260;BME280;22469;48.150;14.004;2023-03-01T01:29:05;98754.06;;;4.02;54.68
3260;BME280;22469;48.150;14.004;2023-03-01T01:31:34;98749.84;;;4.06;54.94
3260;BME280;22469;48.150;14.004;2023-03-01T01:34:04;98746.47;;;4.06;54.60
3260;BME280;22469;48.150;14.004;2023-03-01T01:36:34;98743.06;;;4.07;54.58
3260;BME280;22469;48.150;14.004;2023-03-01T01:39:01;98743.00;;;3.96;54.73
3260;BME280;22469;48.150;14.004;2023-03-01T01:41:29;98737.09;;;4.00;54.71
3260;BME280;22469;48.150;14.004;2023-03-01T01:44:18;98738.00;;;4.03;54.95
3260;BME280;22469;48.150;14.004;2023-03-01T01:52:31;98743.66;;;3.64;55.25
3260;BME280;22469;48.150;14.004;2023-03-01T01:58:01;98736.06;;;3.69;55.08
3260;BME280;22469;48.150;14.004;2023-03-01T02:00:31;98734.28;;;3.57;55.30
3260;BME280;22469;48.150;14.004;2023-03-01T02:03:28;98731.88;;;3.69;55.87
3260;BME280;22469;48.150;14.004;2023-03-01T02:06:07;98733.56;;;3.75;55.25
3260;BME280;22469;48.150;14.004;2023-03-01T02:08:40;98732.56;;;3.54;55.15
3260;BME280;22469;48.150;14.004;2023-03-01T02:11:09;98736.06;;;3.69;54.97
3260;BME280;22469;48.150;14.004;2023-03-01T02:13:37;98732.72;;;3.76;54.57
3260;BME280;22469;48.150;14.004;2023-03-01T02:16:08;98730.97;;;3.69;54.49
3260;BME280;22469;48.150;14.004;2023-03-01T02:18:38;98725.97;;;3.75;54.39
3260;BME280;22469;48.150;14.004;2023-03-01T02:24:49;98727.38;;;3.38;55.30
3260;BME280;22469;48.150;14.004;2023-03-01T02:27:22;98715.66;;;3.49;55.51
3260;BME280;22469;48.150;14.004;2023-03-01T02:29:54;98719.00;;;3.46;55.46
3260;BME280;22469;48.150;14.004;2023-03-01T02:32:23;98717.06;;;3.18;56.04
3260;BME280;22469;48.150;14.004;2023-03-01T02:34:54;98716.34;;;3.32;55.66
3260;BME280;22469;48.150;14.004;2023-03-01T02:37:23;98718.84;;;3.31;55.87
3260;BME280;22469;48.150;14.004;2023-03-01T02:40:03;98723.88;;;3.22;55.97
3260;BME280;22469;48.150;14.004;2023-03-01T02:42:42;98721.22;;;3.08;56.59
3260;BME280;22469;48.150;14.004;2023-03-01T02:45:14;98712.00;;;3.21;56.36
3260;BME280;22469;48.150;14.004;2023-03-01T02:47:41;98715.44;;;3.27;56.16
3260;BME280;22469;48.150;14.004;2023-03-01T02:55:43;98710.84;;;2.87;56.93
3260;BME280;22469;48.150;14.004;2023-03-01T02:58:11;98708.19;;;2.74;57.29
3260;BME280;22469;48.150;14.004;2023-03-01T03:00:41;98699.97;;;2.97;57.25
3260;BME280;22469;48.150;14.004;2023-03-01T03:03:15;98694.00;;;2.89;57.21
3260;BME280;22469;48.150;14.004;2023-03-01T03:05:43;98694.06;;;2.95;57.05
3260;BME280;22469;48.150;14.004;2023-03-01T03:08:11;98689.06;;;3.04;56.63
3260;BME280;22469;48.150;14.004;2023-03-01T03:10:40;98692.66;;;3.30;55.76
3260;BME280;22469;48.150;14.004;2023-03-01T03:13:13;98687.59;;;3.29;55.82
3260;BME280;22469;48.150;14.004;2023-03-01T03:15:42;98683.53;;;3.51;55.59
3260;BME280;22469;48.150;14.004;2023-03-01T03:18:13;98682.69;;;3.50;55.43
3260;BME280;22469;48.150;14.004;2023-03-01T03:20:43;98688.56;;;3.48;55.71
3260;BME280;22469;48.150;14.004;2023-03-01T03:23:11;98684.38;;;3.54;55.36
3260;BME280;22469;48.150;14.004;2023-03-01T03:25:39;98679.34;;;3.56;55.72
3260;BME280;22469;48.150;14.004;2023-03-01T03:28:06;98681.03;;;3.59;54.96
3260;BME280;22469;48.150;14.004;2023-03-01T03:30:39;98673.50;;;3.66;54.84
3260;BME280;22469;48.150;14.004;2023-03-01T03:33:08;98680.22;;;3.66;54.70
3260;BME280;22469;48.150;14.004;2023-03-01T03:35:41;98674.34;;;3.71;54.79
3260;BME280;22469;48.150;14.004;2023-03-01T03:38:12;98677.72;;;3.69;54.92
3260;BME280;22469;48.150;14.004;2023-03-01T03:40:52;98681.16;;;3.74;55.37
3260;BME280;22469;48.150;14.004;2023-03-01T03:43:32;98673.56;;;3.77;54.67
3260;BME280;22469;48.150;14.004;2023-03-01T03:46:00;98673.56;;;3.77;54.49
3260;BME280;22469;48.150;14.004;2023-03-01T03:48:27;98674.38;;;3.76;54.76
3260;BME280;22469;48.150;14.004;2023-03-01T03:50:55;98665.09;;;3.76;54.50
3260;BME280;22469;48.150;14.004;2023-03-01T03:53:24;98674.38;;;3.70;54.72
3260;BME280;22469;48.150;14.004;2023-03-01T03:55:53;98669.22;;;3.62;54.87
3260;BME280;22469;48.150;14.004;2023-03-01T03:58:23;98675.84;;;3.39;55.75
3260;BME280;22469;48.150;14.004;2023-03-01T04:00:55;98672.47;;;3.41;55.92
3260;BME280;22469;48.150;14.004;2023-03-01T04:03:25;98669.09;;;3.44;55.68
3260;BME280;22469;48.150;14.004;2023-03-01T04:05:54;98672.53;;;3.50;55.28
3260;BME280;22469;48.150;14.004;2023-03-01T04:08:23;98678.44;;;3.51;55.65
3260;BME280;22469;48.150;14.004;2023-03-01T04:10:52;98671.69;;;3.51;55.39
3260;BME280;22469;48.150;14.004;2023-03-01T04:13:24;98664.97;;;3.56;55.36
3260;BME280;22469;48.150;14.004;2023-03-01T04:15:53;98670.06;;;3.61;55.22
3260;BME280;22469;48.150;14.004;2023-03-01T04:18:22;98659.00;;;3.50;55.50
3260;BME280;22469;48.150;14.004;2023-03-01T04:20:52;98664.94;;;3.53;55.48
3260;BME280;22469;48.150;14.004;2023-03-01T04:23:22;98657.34;;;3.55;55.94
3260;BME280;22469;48.150;14.004;2023-03-01T04:25:50;98669.22;;;3.62;55.91
3260;BME280;22469;48.150;14.004;2023-03-01T04:28:29;98661.59;;;3.58;55.23
3260;BME280;22469;48.150;14.004;2023-03-01T04:31:05;98663.28;;;3.59;55.54
3260;BME280;22469;48.150;14.004;2023-03-01T04:33:42;98666.69;;;3.59;55.55
3260;BME280;22469;48.150;14.004;2023-03-01T04:36:19;98665.84;;;3.60;55.38
3260;BME280;22469;48.150;14.004;2023-03-01T04:38:49;98668.41;;;3.63;55.15
3260;BME280;22469;48.150;14.004;2023-03-01T04:41:19;98668.22;;;3.40;55.71
3260;BME280;22469;48.150;14.004;2023-03-01T04:43:47;98674.13;;;3.38;56.15
3260;BME280;22469;48.150;14.004;2023-03-01T04:46:18;98664.88;;;3.44;55.79
3260;BME280;22469;48.150;14.004;2023-03-01T04:48:46;98660.69;;;3.48;55.84
3260;BME280;22469;48.150;14.004;2023-03-01T04:51:14;98669.13;;;3.47;55.80
3260;BME280;22469;48.150;14.004;2023-03-01T04:53:43;98664.06;;;3.47;56.13
3260;BME280;22469;48.150;14.004;2023-03-01T04:56:10;98663.97;;;3.36;56.07
3260;BME280;22469;48.150;14.004;2023-03-01T04:58:40;98661.47;;;3.39;56.06
3260;BME280;22469;48.150;14.004;2023-03-01T05:01:15;98664.84;;;3.41;56.08
3260;BME280;22469;48.150;14.004;2023-03-01T05:03:46;98667.38;;;3.41;55.99
3260;BME280;22469;48.150;14.004;2023-03-01T05:06:16;98662.22;;;3.27;56.18
3260;BME280;22469;48.150;14.004;2023-03-01T05:08:44;98658.88;;;3.31;56.16
3260;BME280;22469;48.150;14.004;2023-03-01T05:11:12;98663.06;;;3.28;56.27
3260;BME280;22469;48.150;14.004;2023-03-01T05:13:40;98664.69;;;3.21;56.64
3260;BME280;22469;48.150;14.004;2023-03-01T05:16:08;98663.06;;;3.28;56.34
3260;BME280;22469;48.150;14.004;2023-03-01T05:18:40;98662.25;;;3.29;56.29
3260;BME280;22469;48.150;14.004;2023-03-01T05:21:13;98652.94;;;3.29;56.50
3260;BME280;22469;48.150;14.004;2023-03-01T05:23:43;98655.47;;;3.31;56.49
3260;BME280;22469;48.150;14.004;2023-03-01T05:26:11;98658.88;;;3.31;56.17
3260;BME280;22469;48.150;14.004;2023-03-01T05:28:59;98658.88;;;3.33;56.46
3260;BME280;22469;48.150;14.004;2023-03-01T05:31:27;98661.41;;;3.35;56.27
3260;BME280;22469;48.150;14.004;2023-03-01T05:33:55;98673.19;;;3.26;56.59
3260;BME280;22469;48.150;14.004;2023-03-01T05:36:22;98668.09;;;3.22;56.92
3260;BME280;22469;48.150;14.004;2023-03-01T05:38:48;98669.78;;;3.18;56.93
3260;BME280;22469;48.150;14.004;2023-03-01T05:41:15;98665.53;;;3.19;56.96
3260;BME280;22469;48.150;14.004;2023-03-01T05:43:43;98667.91;;;3.00;57.37
3260;BME280;22469;48.150;14.004;2023-03-01T05:46:12;98672.19;;;3.04;57.35
3260;BME280;22469;48.150;14.004;2023-03-01T05:48:40;98672.09;;;2.97;57.31
3260;BME280;22469;48.150;14.004;2023-03-01T05:51:07;98670.31;;;2.87;57.77
3260;BME280;22469;48.150;14.004;2023-03-01T05:53:34;98672.00;;;2.86;57.96
3260;BME280;22469;48.150;14.004;2023-03-01T05:56:05;98669.38;;;2.74;58.57
3260;BME280;22469;48.150;14.004;2023-03-01T05:58:32;98666.78;;;2.69;58.50
3260;BME280;22469;48.150;14.004;2023-03-01T06:00:59;98673.47;;;2.64;58.66
3260;BME280;22469;48.150;14.004;2023-03-01T06:03:26;98673.56;;;2.70;58.29
3260;BME280;22469;48.150;14.004;2023-03-01T06:05:57;98676.97;;;2.74;58.48
3260;BME280;22469;48.150;14.004;2023-03-01T06:08:24;98680.31;;;2.73;58.49
3260;BME280;22469;48.150;14.004;2023-03-01T06:10:54;98682.88;;;2.76;58.49
3260;BME280;22469;48.150;14.004;2023-03-01T06:13:22;98676.09;;;2.73;58.93
3260;BME280;22469;48.150;14.004;2023-03-01T06:15:50;98669.53;;;2.91;58.58
3260;BME280;22469;48.150;14.004;2023-03-01T06:18:17;98674.66;;;2.98;57.98
3260;BME280;22469;48.150;14.004;2023-03-01T06:20:44;98679.63;;;2.88;58.37
3260;BME280;22469;48.150;14.004;2023-03-01T06:23:11;98671.63;;;2.46;59.24
3260;BME280;22469;48.150;14.004;2023-03-01T06:25:38;98679.97;;;2.42;59.53
3260;BME280;22469;48.150;14.004;2023-03-01T06:28:05;98672.63;;;2.65;59.43
3260;BME280;22469;48.150;14.004;2023-03-01T06:30:32;98666.84;;;2.77;59.64
3260;BME280;22469;48.150;14.004;2023-03-01T06:32:59;98673.69;;;2.85;58.67
3260;BME280;22469;48.150;14.004;2023-03-01T06:35:30;98673.91;;;3.08;58.79
3260;BME280;22469;48.150;14.004;2023-03-01T06:38:00;98678.94;;;3.05;57.96
3260;BME280;22469;48.150;14.004;2023-03-01T06:40:29;98683.00;;;2.90;58.28
3260;BME280;22469;48.150;14.004;2023-03-01T06:42:58;98678.09;;;3.06;58.36
3260;BME280;22469;48.150;14.004;2023-03-01T06:45:25;98681.09;;;2.66;59.24
3260;BME280;22469;48.150;14.004;2023-03-01T06:48:01;98680.44;;;2.85;59.25
3260;BME280;22469;48.150;14.004;2023-03-01T06:50:30;98673.00;;;3.02;58.35
3260;BME280;22469;48.150;14.004;2023-03-01T06:52:58;98674.84;;;3.18;58.00
3260;BME280;22469;48.150;14.004;2023-03-01T06:55:25;98673.03;;;3.05;58.23
3260;BME280;22469;48.150;14.004;2023-03-01T06:57:59;98663.78;;;3.13;58.20
3260;BME280;22469;48.150;14.004;2023-03-01T07:00:27;98673.66;;;2.81;58.70
3260;BME280;22469;48.150;14.004;2023-03-01T07:02:58;98674.72;;;3.04;58.61
3260;BME280;22469;48.150;14.004;2023-03-01T07:05:26;98668.97;;;3.25;57.88
3260;BME280;22469;48.150;14.004;2023-03-01T07:07:54;98669.88;;;3.32;58.05
3260;BME280;22469;48.150;14.004;2023-03-01T07:10:23;98670.66;;;3.25;58.02
3260;BME280;22469;48.150;14.004;2023-03-01T07:12:54;98661.41;;;3.31;57.77
3260;BME280;22469;48.150;14.004;2023-03-01T07:15:30;98657.06;;;3.17;58.78
3260;BME280;22469;48.150;14.004;2023-03-01T07:18:02;98652.78;;;3.09;58.11
3260;BME280;22469;48.150;14.004;2023-03-01T07:20:29;98663.00;;;3.20;58.30
3260;BME280;22469;48.150;14.004;2023-03-01T07:22:56;98663.16;;;3.36;58.06
3260;BME280;22469;48.150;14.004;2023-03-01T07:25:25;98659.16;;;3.76;57.98
3260;BME280;22469;48.150;14.004;2023-03-01T07:27:53;98663.47;;;3.89;56.98
3260;BME280;22469;48.150;14.004;2023-03-01T07:30:21;98655.13;;;4.16;56.46
3260;BME280;22469;48.150;14.004;2023-03-01T07:32:48;98656.00;;;4.23;55.48
3260;BME280;22469;48.150;14.004;2023-03-01T07:35:16;98666.19;;;4.27;55.58
3260;BME280;22469;48.150;14.004;2023-03-01T07:37:43;98657.78;;;4.50;55.11
3260;BME280;22469;48.150;14.004;2023-03-01T07:40:11;98653.53;;;4.41;55.03
3260;BME280;22469;48.150;14.004;2023-03-01T07:42:38;98656.09;;;4.49;55.06
3260;BME280;22469;48.150;14.004;2023-03-01T07:45:06;98658.56;;;4.24;54.62
3260;BME280;22469;48.150;14.004;2023-03-01T07:47:33;98652.59;;;4.16;55.14
3260;BME280;22469;48.150;14.004;2023-03-01T07:50:02;98644.94;;;4.01;55.75
3260;BME280;22469;48.150;14.004;2023-03-01T07:52:30;98644.09;;;4.05;55.66
3260;BME280;22469;48.150;14.004;2023-03-01T07:54:57;98637.25;;;3.87;56.45
3260;BME280;22469;48.150;14.004;2023-03-01T07:57:24;98636.38;;;3.85;56.83
3260;BME280;22469;48.150;14.004;2023-03-01T07:59:52;98635.59;;;4.00;56.52
3260;BME280;22469;48.150;14.004;2023-03-01T08:02:18;98631.47;;;4.30;56.09
3260;BME280;22469;48.150;14.004;2023-03-01T08:04:45;98622.19;;;4.41;56.30
3260;BME280;22469;48.150;14.004;2023-03-01T08:07:12;98617.13;;;4.42;55.57
3260;BME280;22469;48.150;14.004;2023-03-01T08:09:39;98609.50;;;4.44;55.54
3260;BME280;22469;48.150;14.004;2023-03-01T08:12:07;98607.03;;;4.73;54.71
3260;BME280;22469;48.150;14.004;2023-03-01T08:14:34;98610.44;;;5.03;54.92
3260;BME280;22469;48.150;14.004;2023-03-01T08:17:02;98609.53;;;4.58;54.37
3260;BME280;22469;48.150;14.004;2023-03-01T08:19:29;98601.94;;;4.71;54.17
3260;BME280;22469;48.150;14.004;2023-03-01T08:21:57;98604.47;;;5.02;53.40
3260;BME280;22469;48.150;14.004;2023-03-01T08:24:25;98615.50;;;5.04;54.00
3260;BME280;22469;48.150;14.004;2023-03-01T08:26:52;98617.19;;;5.14;53.13
3260;BME280;22469;48.150;14.004;2023-03-01T08:29:19;98618.03;;;4.66;52.62
3260;BME280;22469;48.150;14.004;2023-03-01T08:31:47;98617.22;;;5.07;53.29
3260;BME280;22469;48.150;14.004;2023-03-01T08:34:16;98617.19;;;4.62;54.14
3260;BME280;22469;48.150;14.004;2023-03-01T08:36:45;98623.09;;;4.63;54.41
3260;BME280;22469;48.150;14.004;2023-03-01T08:39:15;98614.63;;;4.53;55.04
3260;BME280;22469;48.150;14.004;2023-03-01T08:41:44;98608.72;;;4.77;54.31
3260;BME280;22469;48.150;14.004;2023-03-01T08:44:14;98591.78;;;5.14;52.99
3260;BME280;22469;48.150;14.004;2023-03-01T08:46:43;98598.50;;;5.43;53.27
3260;BME280;22469;48.150;14.004;2023-03-01T08:49:18;98589.13;;;5.66;52.37
3260;BME280;22469;48.150;14.004;2023-03-01T08:51:47;98587.50;;;5.45;52.05
3260;BME280;22469;48.150;14.004;2023-03-01T08:54:17;98593.47;;;5.20;52.89
3260;BME280;22469;48.150;14.004;2023-03-01T08:56:47;98588.41;;;4.92;53.74
3260;BME280;22469;48.150;14.004;2023-03-01T08:59:16;98593.47;;;5.02;53.20
3260;BME280;22469;48.150;14.004;2023-03-01T09:01:44;98593.47;;;5.12;52.90
3260;BME280;22469;48.150;14.004;2023-03-01T09:04:12;98590.06;;;5.21;52.32
3260;BME280;22469;48.150;14.004;2023-03-01T09:06:39;98580.78;;;4.89;52.50
3260;BME280;22469;48.150;14.004;2023-03-01T09:09:13;98584.16;;;4.90;52.76
3260;BME280;22469;48.150;14.004;2023-03-01T09:11:45;98577.38;;;4.98;52.97
3260;BME280;22469;48.150;14.004;2023-03-01T09:14:13;98563.78;;;5.31;52.33
3260;BME280;22469;48.150;14.004;2023-03-01T09:16:41;98569.72;;;5.32;51.83
3260;BME280;22469;48.150;14.004;2023-03-01T09:19:09;98560.34;;;5.43;52.00
3260;BME280;22469;48.150;14.004;2023-03-01T09:21:37;98566.31;;;5.36;53.04
3260;BME280;22469;48.150;14.004;2023-03-01T09:24:12;98560.38;;;5.41;51.51
3260;BME280;22469;48.150;14.004;2023-03-01T09:26:41;98562.91;;;5.35;51.82
3260;BME280;22469;48.150;14.004;2023-03-01T09:29:08;98566.28;;;5.51;52.29
3260;BME280;22469;48.150;14.004;2023-03-01T09:31:37;98562.75;;;6.00;50.92
3260;BME280;22469;48.150;14.004;2023-03-01T09:34:04;98567.94;;;5.60;51.56
3260;BME280;22469;48.150;14.004;2023-03-01T09:36:32;98563.72;;;5.56;51.82
3260;BME280;22469;48.150;14.004;2023-03-01T09:39:00;98552.63;;;5.81;52.46
3260;BME280;22469;48.150;14.004;2023-03-01T09:46:59;98538.09;;;6.06;51.86
3260;BME280;22469;48.150;14.004;2023-03-01T09:50:31;98531.34;;;5.98;51.12
3260;BME280;22469;48.150;14.004;2023-03-01T09:52:54;98531.16;;;6.31;51.60
3260;BME280;22469;48.150;14.004;2023-03-01T09:55:33;98527.75;;;6.34;51.32
3260;BME280;22469;48.150;14.004;2023-03-01T09:58:28;98523.63;;;6.10;51.00
3260;BME280;22469;48.150;14.004;2023-03-01T10:04:32;98521.94;;;6.13;51.79
3260;BME280;22469;48.150;14.004;2023-03-01T10:09:38;98494.09;;;6.98;50.44
3260;BME280;22469;48.150;14.004;2023-03-01T10:12:13;98490.44;;;7.21;49.77
3260;BME280;22469;48.150;14.004;2023-03-01T10:15:11;98485.25;;;7.30;50.38
3260;BME280;22469;48.150;14.004;2023-03-01T10:17:52;98480.81;;;7.44;49.24
3260;BME280;22469;48.150;14.004;2023-03-01T10:23:21;98491.94;;;7.40;51.00
3260;BME280;22469;48.150;14.004;2023-03-01T10:31:23;98479.13;;;7.43;49.35
3260;BME280;22469;48.150;14.004;2023-03-01T10:33:56;98484.91;;;7.59;49.18
3260;BME280;22469;48.150;14.004;2023-03-01T10:36:24;98474.66;;;7.60;49.62
3260;BME280;22469;48.150;14.004;2023-03-01T10:38:56;98467.78;;;7.67;49.84
3260;BME280;22469;48.150;14.004;2023-03-01T10:41:26;98455.97;;;7.60;49.74
3260;BME280;22469;48.150;14.004;2023-03-01T10:43:56;98451.81;;;8.13;49.65
3260;BME280;22469;48.150;14.004;2023-03-01T10:46:34;98439.50;;;8.40;48.58
3260;BME280;22469;48.150;14.004;2023-03-01T10:51:49;98430.78;;;7.97;49.57
3260;BME280;22469;48.150;14.004;2023-03-01T10:57:00;98419.78;;;8.46;48.83
3260;BME280;22469;48.150;14.004;2023-03-01T10:59:34;98422.25;;;8.52;48.23
3260;BME280;22469;48.150;14.004;2023-03-01T11:05:16;98412.69;;;9.10;47.83
3260;BME280;22469;48.150;14.004;2023-03-01T11:07:55;98404.59;;;9.30;46.86
3260;BME280;22469;48.150;14.004;2023-03-01T11:10:26;98409.94;;;9.60;46.47
3260;BME280;22469;48.150;14.004;2023-03-01T11:13:07;98403.19;;;8.70;46.94
3260;BME280;22469;48.150;14.004;2023-03-01T11:15:42;98385.13;;;8.78;47.95
3260;BME280;22469;48.150;14.004;2023-03-01T11:18:35;98388.56;;;8.77;47.20
3260;BME280;22469;48.150;14.004;2023-03-01T11:21:15;98389.06;;;8.49;47.94
3260;BME280;22469;48.150;14.004;2023-03-01T11:23:45;98383.81;;;9.04;48.03
3260;BME280;22469;48.150;14.004;2023-03-01T11:26:15;98385.44;;;9.08;48.35
3260;BME280;22469;48.150;14.004;2023-03-01T11:28:44;98368.91;;;9.22;47.83
3260;BME280;22469;48.150;14.004;2023-03-01T11:31:18;98365.41;;;8.85;47.65
3260;BME280;22469;48.150;14.004;2023-03-01T11:36:52;98359.00;;;9.07;47.37
3260;BME280;22469;48.150;14.004;2023-03-01T11:45:10;98353.25;;;8.96;48.95
3260;BME280;22469;48.150;14.004;2023-03-01T11:50:45;98349.03;;;8.93;48.51
3260;BME280;22469;48.150;14.004;2023-03-01T11:56:31;98336.81;;;9.08;48.40
3260;BME280;22469;48.150;14.004;2023-03-01T12:11:29;98323.19;;;9.83;47.89
3260;BME280;22469;48.150;14.004;2023-03-01T12:20:34;98332.13;;;9.28;48.59
3260;BME280;22469;48.150;14.004;2023-03-01T12:29:22;98313.34;;;10.02;47.34
3260;BME280;22469;48.150;14.004;2023-03-01T12:32:08;98325.66;;;9.86;47.63
3260;BME280;22469;48.150;14.004;2023-03-01T12:34:48;98308.13;;;10.05;47.50
3260;BME280;22469;48.150;14.004;2023-03-01T12:37:39;98295.28;;;10.07;47.98
3260;BME280;22469;48.150;14.004;2023-03-01T12:40:29;98294.78;;;9.91;48.16
3260;BME280;22469;48.150;14.004;2023-03-01T12:49:24;98310.91;;;9.96;48.24
3260;BME280;22469;48.150;14.004;2023-03-01T12:52:10;98303.91;;;10.03;48.05
3260;BME280;22469;48.150;14.004;2023-03-01T12:54:41;98293.34;;;10.15;47.22
3260;BME280;22469;48.150;14.004;2023-03-01T12:57:30;98302.81;;;10.46;47.10
3260;BME280;22469;48.150;14.004;2023-03-01T13:02:49;98309.84;;;10.05;48.11
3260;BME280;22469;48.150;14.004;2023-03-01T13:11:22;98282.81;;;10.60;48.09
3260;BME280;22469;48.150;14.004;2023-03-01T13:13:50;98275.28;;;10.54;47.30
3260;BME280;22469;48.150;14.004;2023-03-01T13:21:47;98266.41;;;11.23;46.37
3260;BME280;22469;48.150;14.004;2023-03-01T13:29:46;98270.69;;;11.51;45.77
3260;BME280;22469;48.150;14.004;2023-03-01T13:32:31;98274.06;;;11.25;45.91
3260;BME280;22469;48.150;14.004;2023-03-01T13:37:46;98269.25;;;10.55;47.36
3260;BME280;22469;48.150;14.004;2023-03-01T13:42:55;98258.75;;;10.62;48.13
3260;BME280;22469;48.150;14.004;2023-03-01T13:45:39;98265.97;;;10.81;47.83
3260;BME280;22469;48.150;14.004;2023-03-01T13:48:20;98268.44;;;10.53;47.95
3260;BME280;22469;48.150;14.004;2023-03-01T13:50:54;98267.56;;;10.21;48.56
3260;BME280;22469;48.150;14.004;2023-03-01T13:53:38;98258.31;;;10.48;48.78
3260;BME280;22469;48.150;14.004;2023-03-01T13:56:29;98241.75;;;10.60;48.36
3260;BME280;22469;48.150;14.004;2023-03-01T13:59:18;98253.66;;;10.31;48.85
3260;BME280;22469;48.150;14.004;2023-03-01T14:01:55;98243.22;;;10.68;48.70
3260;BME280;22469;48.150;14.004;2023-03-01T14:04:32;98243.03;;;10.75;47.75
3260;BME280;22469;48.150;14.004;2023-03-01T14:07:21;98247.53;;;10.96;47.57
3260;BME280;22469;48.150;14.004;2023-03-01T14:10:00;98245.69;;;10.72;48.16
3260;BME280;22469;48.150;14.004;2023-03-01T14:19:24;98244.00;;;10.71;47.73
3260;BME280;22469;48.150;14.004;2023-03-01T14:22:16;98237.56;;;10.57;47.27
3260;BME280;22469;48.150;14.004;2023-03-01T14:25:01;98243.53;;;10.56;47.77
3260;BME280;22469;48.150;14.004;2023-03-01T14:27:39;98228.75;;;10.36;48.06
3260;BME280;22469;48.150;14.004;2023-03-01T14:30:24;98226.69;;;10.16;48.99
3260;BME280;22469;48.150;14.004;2023-03-01T14:33:00;98232.50;;;10.21;48.61
3260;BME280;22469;48.150;14.004;2023-03-01T14:35:32;98234.91;;;10.29;48.37
3260;BME280;22469;48.150;14.004;2023-03-01T14:38:02;98236.84;;;10.19;48.24
3260;BME280;22469;48.150;14.004;2023-03-01T14:40:34;98232.44;;;10.25;49.03
3260;BME280;22469;48.150;14.004;2023-03-01T14:43:11;98223.09;;;10.22;48.86
3260;BME280;22469;48.150;14.004;2023-03-01T14:45:39;98231.75;;;10.18;48.16
3260;BME280;22469;48.150;14.004;2023-03-01T14:48:07;98223.38;;;10.11;48.95
3260;BME280;22469;48.150;14.004;2023-03-01T14:50:35;98234.81;;;9.98;48.84
3260;BME280;22469;48.150;14.004;2023-03-01T14:53:17;98224.25;;;9.78;49.70
3260;BME280;22469;48.150;14.004;2023-03-01T14:55:54;98244.72;;;10.12;49.36
3260;BME280;22469;48.150;14.004;2023-03-01T14:58:24;98234.88;;;9.96;49.58
3260;BME280;22469;48.150;14.004;2023-03-01T15:00:55;98230.31;;;10.08;48.99
3260;BME280;22469;48.150;14.004;2023-03-01T15:03:27;98234.75;;;10.65;48.29
3260;BME280;22469;48.150;14.004;2023-03-01T15:06:04;98232.91;;;10.70;48.00
3260;BME280;22469;48.150;14.004;2023-03-01T15:08:35;98239.91;;;10.93;47.56
3260;BME280;22469;48.150;14.004;2023-03-01T15:13:41;98228.88;;;10.91;47.75
3260;BME280;22469;48.150;14.004;2023-03-01T15:16:11;98227.53;;;11.34;47.36
3260;BME280;22469;48.150;14.004;2023-03-01T15:18:46;98236.50;;;10.93;47.42
3260;BME280;22469;48.150;14.004;2023-03-01T15:21:29;98241.47;;;10.69;47.14
3260;BME280;22469;48.150;14.004;2023-03-01T15:27:16;98226.53;;;10.54;47.85
3260;BME280;22469;48.150;14.004;2023-03-01T15:29:53;98231.88;;;10.46;48.23
3260;BME280;22469;48.150;14.004;2023-03-01T15:32:34;98236.38;;;10.38;48.70
3260;BME280;22469;48.150;14.004;2023-03-01T15:35:57;98228.16;;;9.92;48.79
3260;BME280;22469;48.150;14.004;2023-03-01T15:38:36;98226.53;;;10.21;48.88
3260;BME280;22469;48.150;14.004;2023-03-01T15:41:24;98232.13;;;10.37;48.79
3260;BME280;22469;48.150;14.004;2023-03-01T15:43:53;98228.78;;;10.02;49.50
3260;BME280;22469;48.150;14.004;2023-03-01T15:46:28;98227.41;;;9.87;49.74